createdAt,value
2018-10-07T00:00:55.501Z,61.05
2018-10-07T00:03:24.649Z,61.10
2018-10-07T00:05:53.812Z,61.37
2018-10-07T00:08:22.988Z,62.09
2018-10-07T00:10:52.159Z,62.16
2018-10-07T00:13:21.361Z,61.87
2018-10-07T00:15:50.529Z,61.79
2018-10-07T00:18:19.728Z,61.87
2018-10-07T00:20:48.924Z,61.68
2018-10-07T00:23:18.085Z,62.02
2018-10-07T00:25:47.317Z,62.14
2018-10-07T00:28:16.501Z,62.45
2018-10-07T00:30:45.680Z,62.15
2018-10-07T00:33:14.864Z,62.23
2018-10-07T00:35:44.025Z,62.04
2018-10-07T00:38:13.186Z,62.41
2018-10-07T00:40:42.357Z,62.88
2018-10-07T00:43:11.540Z,62.77
2018-10-07T00:45:40.708Z,63.11
2018-10-07T00:48:09.848Z,63.04
2018-10-07T00:50:39.005Z,63.03
2018-10-07T00:53:08.176Z,63.25
2018-10-07T00:55:37.361Z,63.33
2018-10-07T00:58:06.548Z,62.99
2018-10-07T01:00:35.729Z,63.19
2018-10-07T01:03:04.948Z,63.54
2018-10-07T01:05:34.131Z,64.03
2018-10-07T01:08:03.260Z,63.45
2018-10-07T01:10:32.498Z,63.81
2018-10-07T01:13:01.681Z,63.43
2018-10-07T01:15:30.827Z,63.54
2018-10-07T01:17:59.965Z,63.81
2018-10-07T01:20:29.173Z,63.50
2018-10-07T01:22:58.359Z,63.70
2018-10-07T01:25:27.504Z,64.10
2018-10-07T01:27:56.661Z,64.35
2018-10-07T01:30:25.830Z,64.11
2018-10-07T01:32:55.919Z,64.43
2018-10-07T01:35:25.435Z,64.50
2018-10-07T01:37:54.607Z,64.66
2018-10-07T01:40:23.794Z,64.95
2018-10-07T01:42:52.952Z,64.73
2018-10-07T01:45:22.095Z,64.60
2018-10-07T01:47:51.279Z,64.79
2018-10-07T01:50:20.437Z,64.96
2018-10-07T01:52:49.670Z,64.81
2018-10-07T01:55:18.833Z,65.54
2018-10-07T01:57:48.024Z,65.56
2018-10-07T02:00:17.190Z,65.58
2018-10-07T02:02:46.389Z,65.67
2018-10-07T02:05:15.621Z,65.75
2018-10-07T02:07:44.676Z,65.41
2018-10-07T02:10:13.840Z,65.56
2018-10-07T02:12:42.991Z,65.69
2018-10-07T02:15:12.142Z,65.86
2018-10-07T02:17:41.369Z,66.22
2018-10-07T02:20:10.549Z,66.16
2018-10-07T02:22:39.737Z,66.19
2018-10-07T02:25:08.960Z,66.02
2018-10-07T02:27:38.121Z,66.00
2018-10-07T02:30:07.305Z,66.01
2018-10-07T02:32:36.432Z,66.15
2018-10-07T02:35:05.610Z,66.05
2018-10-07T02:37:34.751Z,65.99
2018-10-07T02:40:04.023Z,66.07
2018-10-07T02:42:33.162Z,66.12
2018-10-07T02:45:02.384Z,65.96
2018-10-07T02:47:31.607Z,65.89
2018-10-07T02:50:00.777Z,66.35
2018-10-07T02:52:35.339Z,67.10
2018-10-07T02:55:04.573Z,66.79
2018-10-07T02:57:33.715Z,66.53
2018-10-07T03:00:02.920Z,66.37
2018-10-07T03:02:32.113Z,66.43
2018-10-07T03:05:01.288Z,66.84
2018-10-07T03:07:30.485Z,66.84
2018-10-07T03:09:59.673Z,67.65
2018-10-07T03:12:28.841Z,68.52
2018-10-07T03:14:58.025Z,68.58
2018-10-07T03:17:27.169Z,68.39
2018-10-07T03:19:56.341Z,68.10
2018-10-07T03:22:25.485Z,67.41
2018-10-07T03:24:54.689Z,67.79
2018-10-07T03:27:24.335Z,67.56
2018-10-07T03:29:53.883Z,67.36
2018-10-07T03:32:23.097Z,67.28
2018-10-07T03:34:52.280Z,67.32
2018-10-07T03:37:21.446Z,67.47
2018-10-07T03:39:50.583Z,67.37
2018-10-07T03:42:19.772Z,67.50
2018-10-07T03:44:48.954Z,67.63
2018-10-07T03:47:18.153Z,67.52
2018-10-07T03:49:47.321Z,67.90
2018-10-07T03:52:16.510Z,67.79
2018-10-07T03:54:45.676Z,67.98
2018-10-07T03:57:14.925Z,68.33
2018-10-07T03:59:44.101Z,68.33
2018-10-07T04:02:13.260Z,68.83
2018-10-07T04:04:42.426Z,68.83
2018-10-07T04:07:11.584Z,68.94
2018-10-07T04:09:40.765Z,68.81
2018-10-07T04:12:09.993Z,68.85
2018-10-07T04:14:39.129Z,68.77
2018-10-07T04:17:08.316Z,68.80
2018-10-07T04:19:37.499Z,68.67
2018-10-07T04:22:06.671Z,68.59
2018-10-07T04:24:36.103Z,68.69
2018-10-07T04:27:05.282Z,68.53
2018-10-07T04:29:34.448Z,68.83
2018-10-07T04:32:03.638Z,69.06
2018-10-07T04:34:32.798Z,68.56
2018-10-07T04:37:01.990Z,69.05
2018-10-07T04:39:31.178Z,69.11
2018-10-07T04:42:00.385Z,69.11
2018-10-07T04:44:29.561Z,69.28
2018-10-07T04:46:58.745Z,69.13
2018-10-07T04:49:27.905Z,68.96
2018-10-07T04:51:57.053Z,69.00
2018-10-07T04:54:26.197Z,68.85
2018-10-07T04:56:55.367Z,68.75
2018-10-07T04:59:24.513Z,68.65
2018-10-07T05:01:53.681Z,68.43
2018-10-07T05:04:22.831Z,68.28
2018-10-07T05:06:52.296Z,68.18
2018-10-07T05:09:21.465Z,67.71
2018-10-07T05:11:51.867Z,68.28
2018-10-07T05:14:21.061Z,68.19
2018-10-07T05:16:52.160Z,68.26
2018-10-07T05:19:21.435Z,68.49
2018-10-07T05:21:50.644Z,68.53
2018-10-07T05:24:19.843Z,68.33
2018-10-07T05:26:48.998Z,68.56
2018-10-07T05:29:18.172Z,68.77
2018-10-07T05:31:47.372Z,68.67
2018-10-07T05:34:16.540Z,68.67
2018-10-07T05:36:45.705Z,68.64
2018-10-07T05:39:14.893Z,68.41
2018-10-07T05:41:44.056Z,68.61
2018-10-07T05:44:13.309Z,68.55
2018-10-07T05:46:42.397Z,68.53
2018-10-07T05:49:11.548Z,68.30
2018-10-07T05:51:40.762Z,68.47
2018-10-07T05:54:09.911Z,68.61
2018-10-07T05:56:39.341Z,68.85
2018-10-07T05:59:08.505Z,68.70
2018-10-07T06:01:41.679Z,68.92
2018-10-07T06:04:20.120Z,69.16
2018-10-07T06:06:49.293Z,68.87
2018-10-07T06:09:25.961Z,69.01
2018-10-07T06:11:55.840Z,68.94
2018-10-07T06:14:42.268Z,68.82
2018-10-07T06:17:11.473Z,68.82
2018-10-07T06:19:40.628Z,68.58
2018-10-07T06:22:09.785Z,68.65
2018-10-07T06:24:38.972Z,68.66
2018-10-07T06:27:08.101Z,68.71
2018-10-07T06:29:37.256Z,68.59
2018-10-07T06:32:06.400Z,68.77
2018-10-07T06:34:35.577Z,68.50
2018-10-07T06:37:04.703Z,68.41
2018-10-07T06:39:33.847Z,68.27
2018-10-07T06:42:03.019Z,68.35
2018-10-07T06:44:32.181Z,68.38
2018-10-07T06:47:01.358Z,68.42
2018-10-07T06:49:30.501Z,68.86
2018-10-07T06:51:59.719Z,69.15
2018-10-07T06:54:28.872Z,69.15
2018-10-07T06:56:58.031Z,69.24
2018-10-07T06:59:27.230Z,69.33
2018-10-07T07:01:56.376Z,70.33
2018-10-07T07:04:25.507Z,70.40
2018-10-07T07:06:54.652Z,70.55
2018-10-07T07:09:23.780Z,70.76
2018-10-07T07:11:52.954Z,70.37
2018-10-07T07:14:22.092Z,70.29
2018-10-07T07:16:51.285Z,70.15
2018-10-07T07:19:20.420Z,70.07
2018-10-07T07:21:49.600Z,69.73
2018-10-07T07:24:18.764Z,69.77
2018-10-07T07:26:48.005Z,70.45
2018-10-07T07:29:17.139Z,69.93
2018-10-07T07:31:46.321Z,69.44
2018-10-07T07:34:15.472Z,68.60
2018-10-07T07:36:44.679Z,68.42
2018-10-07T07:39:13.796Z,68.26
2018-10-07T07:41:42.964Z,68.80
2018-10-07T07:44:12.133Z,68.73
2018-10-07T07:46:41.297Z,69.11
2018-10-07T07:49:10.533Z,68.50
2018-10-07T07:51:39.653Z,68.41
2018-10-07T07:54:08.829Z,67.47
2018-10-07T07:56:38.062Z,66.60
2018-10-07T07:59:07.345Z,65.25
2018-10-07T08:01:36.513Z,64.94
2018-10-07T08:04:05.748Z,64.94
2018-10-07T08:06:34.901Z,64.58
2018-10-07T08:09:05.546Z,64.60
2018-10-07T08:11:34.676Z,64.56
2018-10-07T08:14:03.912Z,64.50
2018-10-07T08:16:33.123Z,64.06
2018-10-07T08:19:02.262Z,63.77
2018-10-07T08:21:31.485Z,63.92
2018-10-07T08:24:00.643Z,64.35
2018-10-07T08:26:29.736Z,64.51
2018-10-07T08:28:58.936Z,64.57
2018-10-07T08:31:28.085Z,64.74
2018-10-07T08:33:57.246Z,64.33
2018-10-07T08:36:26.358Z,63.73
2018-10-07T08:38:55.516Z,63.70
2018-10-07T08:41:24.682Z,63.46
2018-10-07T08:43:53.835Z,62.77
2018-10-07T08:46:22.989Z,62.64
2018-10-07T08:48:52.178Z,62.62
2018-10-07T08:51:21.340Z,61.91
2018-10-07T08:53:50.555Z,61.14
2018-10-07T08:56:19.718Z,60.16
2018-10-07T08:58:48.854Z,59.41
2018-10-07T09:01:18.003Z,59.43
2018-10-07T09:03:47.148Z,59.15
2018-10-07T09:06:16.357Z,59.68
2018-10-07T09:08:45.539Z,61.14
2018-10-07T09:11:14.608Z,61.83
2018-10-07T09:13:43.751Z,61.21
2018-10-07T09:16:12.958Z,60.88
2018-10-07T09:18:42.101Z,59.91
2018-10-07T09:21:11.243Z,58.95
2018-10-07T09:23:40.390Z,59.07
2018-10-07T09:26:09.554Z,59.28
2018-10-07T09:28:38.712Z,59.18
2018-10-07T09:31:08.196Z,59.04
2018-10-07T09:33:37.349Z,59.11
2018-10-07T09:36:06.498Z,59.16
2018-10-07T09:38:35.736Z,60.09
2018-10-07T09:41:04.881Z,59.57
2018-10-07T09:43:34.077Z,58.38
2018-10-07T09:46:03.227Z,58.05
2018-10-07T09:48:32.403Z,57.96
2018-10-07T09:51:01.551Z,58.62
2018-10-07T09:53:30.794Z,57.74
2018-10-07T09:55:59.935Z,57.22
2018-10-07T09:58:29.101Z,57.52
2018-10-07T10:00:58.303Z,56.82
2018-10-07T10:03:27.496Z,56.48
2018-10-07T10:05:56.683Z,56.59
2018-10-07T10:08:25.841Z,56.50
2018-10-07T10:10:55.030Z,56.94
2018-10-07T10:13:24.240Z,57.65
2018-10-07T10:15:53.459Z,57.63
2018-10-07T10:18:30.684Z,57.39
2018-10-07T10:21:25.636Z,57.14
2018-10-07T10:24:04.620Z,56.92
2018-10-07T10:26:39.697Z,56.19
2018-10-07T10:29:28.632Z,55.68
2018-10-07T10:32:10.922Z,56.18
2018-10-07T10:34:48.104Z,56.79
2018-10-07T10:37:23.637Z,55.92
2018-10-07T10:39:57.468Z,55.24
2018-10-07T10:43:03.404Z,55.74
2018-10-07T10:45:41.030Z,55.38
2018-10-07T10:49:21.088Z,55.20
2018-10-07T10:53:08.676Z,54.50
2018-10-07T10:55:47.015Z,54.39
2018-10-07T10:59:32.866Z,54.61
2018-10-07T11:02:28.009Z,53.99
2018-10-07T11:05:14.578Z,54.36
2018-10-07T11:07:58.644Z,53.26
2018-10-07T11:10:44.593Z,53.23
2018-10-07T11:15:27.994Z,51.73
2018-10-07T11:18:19.252Z,49.62
2018-10-07T11:21:29.293Z,51.01
2018-10-07T11:24:03.388Z,49.84
2018-10-07T11:28:52.627Z,49.23
2018-10-07T11:33:45.775Z,48.98
2018-10-07T11:37:00.540Z,48.14
2018-10-07T11:39:47.730Z,47.83
2018-10-07T11:42:24.083Z,48.02
2018-10-07T11:45:16.145Z,47.04
2018-10-07T11:48:11.288Z,47.71
2018-10-07T11:50:51.881Z,47.47
2018-10-07T11:53:49.131Z,47.00
2018-10-07T11:56:18.269Z,46.57
2018-10-07T11:58:47.397Z,47.33
2018-10-07T12:01:16.520Z,46.36
2018-10-07T12:03:45.641Z,46.70
2018-10-07T12:06:14.828Z,46.90
2018-10-07T12:08:43.985Z,46.57
2018-10-07T12:11:13.404Z,46.20
2018-10-07T12:13:42.550Z,46.98
2018-10-07T12:16:12.117Z,46.05
2018-10-07T12:18:41.247Z,46.23
2018-10-07T12:21:10.452Z,45.63
2018-10-07T12:23:39.607Z,44.81
2018-10-07T12:26:08.797Z,45.05
2018-10-07T12:28:37.949Z,44.72
2018-10-07T12:31:07.799Z,43.79
2018-10-07T12:33:37.274Z,43.25
2018-10-07T12:36:06.935Z,43.22
2018-10-07T12:38:36.108Z,42.40
2018-10-07T12:41:05.265Z,42.86
2018-10-07T12:43:34.485Z,42.70
2018-10-07T12:46:03.616Z,41.83
2018-10-07T12:48:33.725Z,41.15
2018-10-07T12:51:02.897Z,40.93
2018-10-07T12:53:32.077Z,42.83
2018-10-07T12:56:01.240Z,43.06
2018-10-07T12:58:30.400Z,43.14
2018-10-07T13:00:59.580Z,42.48
2018-10-07T13:03:28.747Z,42.40
2018-10-07T13:05:57.943Z,42.41
2018-10-07T13:08:27.086Z,43.19
2018-10-07T13:10:56.236Z,44.67
2018-10-07T13:13:25.346Z,44.38
2018-10-07T13:15:54.670Z,43.96
2018-10-07T13:18:23.816Z,43.16
2018-10-07T13:20:53.038Z,42.68
2018-10-07T13:23:22.188Z,41.08
2018-10-07T13:25:51.350Z,41.48
2018-10-07T13:28:20.541Z,40.32
2018-10-07T13:30:49.783Z,39.95
2018-10-07T13:33:18.935Z,39.61
2018-10-07T13:35:48.091Z,39.41
2018-10-07T13:38:17.255Z,39.63
2018-10-07T13:40:46.440Z,40.33
2018-10-07T13:43:15.589Z,39.87
2018-10-07T13:45:44.757Z,39.92
2018-10-07T13:48:13.917Z,39.20
2018-10-07T13:50:43.121Z,39.13
2018-10-07T13:53:12.331Z,39.04
2018-10-07T13:55:41.466Z,38.32
2018-10-07T13:58:10.585Z,37.64
2018-10-07T14:00:39.754Z,38.50
2018-10-07T14:03:08.876Z,38.17
2018-10-07T14:05:38.002Z,37.63
2018-10-07T14:08:07.127Z,39.39
2018-10-07T14:10:36.238Z,39.36
2018-10-07T14:13:05.394Z,38.68
2018-10-07T14:15:34.540Z,39.74
2018-10-07T14:18:03.832Z,40.24
2018-10-07T14:20:33.047Z,39.43
2018-10-07T14:26:25.512Z,39.52
2018-10-07T14:28:54.624Z,40.05
2018-10-07T14:31:23.720Z,39.58
2018-10-07T14:33:52.967Z,39.92
2018-10-07T14:39:19.257Z,40.17
2018-10-07T14:41:48.365Z,40.10
2018-10-07T14:44:17.492Z,40.18
2018-10-07T14:46:46.712Z,40.36
2018-10-07T14:49:15.950Z,40.76
2018-10-07T14:52:04.758Z,41.71
2018-10-07T14:54:33.912Z,42.66
2018-10-07T14:57:03.004Z,41.24
2018-10-07T14:59:32.128Z,40.92
2018-10-07T15:02:01.439Z,40.67
2018-10-07T15:04:30.609Z,41.12
2018-10-07T15:06:59.828Z,41.04
2018-10-07T15:09:29.035Z,41.04
2018-10-07T15:11:58.093Z,41.66
2018-10-07T15:14:27.191Z,41.77
2018-10-07T15:16:56.327Z,41.75
2018-10-07T15:19:25.445Z,41.81
2018-10-07T15:21:54.593Z,42.02
2018-10-07T15:24:23.734Z,42.32
2018-10-07T15:26:52.857Z,42.20
2018-10-07T15:29:21.999Z,42.07
2018-10-07T15:31:51.060Z,42.29
2018-10-07T15:34:20.219Z,42.37
2018-10-07T15:36:49.353Z,41.62
2018-10-07T15:39:18.518Z,41.70
2018-10-07T15:41:47.612Z,41.83
2018-10-07T15:44:16.769Z,42.03
2018-10-07T15:46:45.905Z,42.43
2018-10-07T15:49:15.032Z,43.01
2018-10-07T15:51:44.189Z,43.24
2018-10-07T15:54:13.395Z,43.37
2018-10-07T15:56:42.582Z,43.54
2018-10-07T15:59:11.701Z,43.70
2018-10-07T16:01:40.863Z,43.90
2018-10-07T16:04:09.965Z,44.33
2018-10-07T16:06:39.089Z,44.22
2018-10-07T16:09:09.644Z,44.53
2018-10-07T16:11:38.784Z,44.17
2018-10-07T16:14:07.910Z,44.68
2018-10-07T16:16:37.256Z,44.41
2018-10-07T16:19:06.434Z,44.72
2018-10-07T16:21:35.677Z,44.61
2018-10-07T16:24:04.846Z,44.70
2018-10-07T16:26:34.056Z,44.97
2018-10-07T16:29:03.133Z,45.15
2018-10-07T16:31:32.429Z,45.40
2018-10-07T16:34:01.605Z,45.74
2018-10-07T16:36:30.778Z,46.18
2018-10-07T16:38:59.958Z,46.62
2018-10-07T16:41:29.104Z,46.76
2018-10-07T16:43:58.300Z,47.06
2018-10-07T16:46:27.446Z,46.91
2018-10-07T16:48:56.582Z,47.42
2018-10-07T16:51:26.920Z,48.14
2018-10-07T16:53:56.938Z,48.80
2018-10-07T16:56:26.199Z,49.79
2018-10-07T16:58:55.344Z,49.79
2018-10-07T17:01:24.434Z,50.92
2018-10-07T17:03:53.603Z,50.92
2018-10-07T17:06:22.753Z,50.52
2018-10-07T17:08:51.923Z,50.56
2018-10-07T17:11:21.145Z,51.13
2018-10-07T17:13:50.261Z,51.46
2018-10-07T17:16:19.441Z,52.33
2018-10-07T17:18:48.728Z,52.46
2018-10-07T17:21:17.923Z,53.18
2018-10-07T17:23:47.069Z,53.81
2018-10-07T17:26:16.252Z,54.13
2018-10-07T17:28:45.412Z,53.99
2018-10-07T17:31:14.512Z,53.98
2018-10-07T17:33:43.639Z,54.19
2018-10-07T17:36:12.745Z,54.20
2018-10-07T17:38:41.922Z,55.06
2018-10-07T17:41:11.124Z,55.63
2018-10-07T17:43:40.269Z,56.48
2018-10-07T17:46:09.450Z,56.15
2018-10-07T17:48:38.700Z,56.34
2018-10-07T17:51:07.804Z,56.18
2018-10-07T17:53:36.964Z,56.34
2018-10-07T17:56:06.353Z,56.26
2018-10-07T17:58:35.491Z,56.75
2018-10-07T18:01:04.686Z,57.25
2018-10-07T18:03:33.853Z,57.80
2018-10-07T18:06:03.044Z,58.76
2018-10-07T18:08:32.183Z,59.57
2018-10-07T18:11:01.312Z,59.80
2018-10-07T18:13:30.503Z,59.35
2018-10-07T18:15:59.634Z,59.52
2018-10-07T18:18:28.856Z,59.39
2018-10-07T18:20:58.273Z,58.83
2018-10-07T18:23:27.455Z,59.14
2018-10-07T18:25:56.652Z,59.95
2018-10-07T18:28:25.807Z,59.98
2018-10-07T18:30:55.064Z,60.42
2018-10-07T18:33:24.216Z,59.87
2018-10-07T18:35:53.339Z,59.51
2018-10-07T18:38:22.555Z,59.71
2018-10-07T18:40:51.690Z,59.47
2018-10-07T18:43:20.847Z,60.05
2018-10-07T18:45:50.060Z,59.75
2018-10-07T18:48:19.274Z,59.54
2018-10-07T18:50:48.517Z,59.33
2018-10-07T18:53:17.675Z,59.58
2018-10-07T18:55:46.835Z,59.81
2018-10-07T18:58:16.021Z,59.40
2018-10-07T19:00:45.169Z,59.55
2018-10-07T19:03:14.354Z,59.45
2018-10-07T19:05:43.528Z,59.66
2018-10-07T19:08:12.757Z,60.29
2018-10-07T19:10:41.933Z,60.47
2018-10-07T19:13:11.114Z,60.97
2018-10-07T19:15:40.269Z,60.52
2018-10-07T19:18:09.435Z,60.76
2018-10-07T19:20:38.570Z,60.72
2018-10-07T19:23:07.745Z,60.90
2018-10-07T19:25:36.945Z,60.77
2018-10-07T19:28:06.453Z,61.07
2018-10-07T19:30:35.699Z,60.76
2018-10-07T19:33:04.888Z,61.02
2018-10-07T19:35:37.071Z,60.75
2018-10-07T19:38:06.266Z,60.68
2018-10-07T19:40:35.428Z,61.06
2018-10-07T19:43:04.635Z,61.07
2018-10-07T19:45:33.831Z,61.77
2018-10-07T19:48:03.013Z,61.79
2018-10-07T19:50:32.175Z,62.19
2018-10-07T19:53:01.403Z,62.20
2018-10-07T19:55:30.580Z,62.23
2018-10-07T19:57:59.726Z,62.48
2018-10-07T20:00:28.908Z,63.49
2018-10-07T20:02:58.067Z,63.15
2018-10-07T20:05:27.232Z,63.35
2018-10-07T20:07:56.832Z,63.63
2018-10-07T20:10:26.097Z,63.67
2018-10-07T20:12:55.366Z,64.22
2018-10-07T20:15:24.500Z,64.58
2018-10-07T20:17:53.627Z,64.19
2018-10-07T20:20:22.784Z,64.73
2018-10-07T20:22:51.934Z,64.67
2018-10-07T20:25:21.133Z,65.36
2018-10-07T20:27:50.402Z,65.68
2018-10-07T20:30:19.584Z,66.01
2018-10-07T20:32:48.747Z,66.13
2018-10-07T20:35:17.982Z,66.07
2018-10-07T20:37:47.168Z,66.00
2018-10-07T20:40:16.423Z,65.93
2018-10-07T20:42:45.548Z,66.02
2018-10-07T20:45:14.756Z,65.66
2018-10-07T20:47:43.901Z,65.90
2018-10-07T20:50:13.402Z,65.79
2018-10-07T20:52:42.595Z,65.86
2018-10-07T20:55:11.799Z,65.62
2018-10-07T20:57:40.959Z,65.71
2018-10-07T21:00:10.151Z,64.97
2018-10-07T21:02:39.391Z,65.29
2018-10-07T21:05:08.572Z,65.28
2018-10-07T21:07:37.765Z,65.25
2018-10-07T21:10:06.909Z,65.68
2018-10-07T21:12:36.074Z,65.32
2018-10-07T21:15:05.249Z,66.00
2018-10-07T21:17:34.475Z,65.74
2018-10-07T21:20:03.679Z,65.99
2018-10-07T21:22:32.901Z,66.26
2018-10-07T21:25:02.135Z,67.03
2018-10-07T21:27:31.264Z,66.67
2018-10-07T21:30:00.464Z,66.22
2018-10-07T21:32:29.628Z,66.11
2018-10-07T21:34:58.776Z,66.71
2018-10-07T21:37:27.983Z,66.65
2018-10-07T21:39:57.112Z,66.47
2018-10-07T21:42:26.328Z,66.33
2018-10-07T21:44:55.480Z,66.84
2018-10-07T21:47:24.698Z,66.52
2018-10-07T21:49:53.885Z,66.84
2018-10-07T21:52:23.184Z,66.92
2018-10-07T21:54:52.377Z,66.84
2018-10-07T21:57:21.560Z,66.45
2018-10-07T21:59:50.832Z,66.43
2018-10-07T22:02:19.973Z,66.39
2018-10-07T22:04:49.112Z,66.63
2018-10-07T22:07:18.746Z,66.78
2018-10-07T22:09:47.889Z,66.73
2018-10-07T22:12:17.070Z,66.82
2018-10-07T22:14:46.210Z,66.46
2018-10-07T22:17:15.360Z,66.19
2018-10-07T22:19:44.474Z,66.37
2018-10-07T22:22:13.644Z,66.45
2018-10-07T22:24:42.804Z,66.18
2018-10-07T22:27:11.980Z,66.01
2018-10-07T22:29:41.124Z,66.33
2018-10-07T22:32:10.275Z,65.88
2018-10-07T22:34:39.437Z,66.63
2018-10-07T22:37:08.673Z,66.75
2018-10-07T22:39:37.882Z,66.60
2018-10-07T22:42:07.005Z,67.33
2018-10-07T22:44:36.206Z,67.50
2018-10-07T22:47:05.380Z,67.69
2018-10-07T22:49:34.553Z,67.92
2018-10-07T22:52:03.764Z,68.18
2018-10-07T22:54:32.956Z,68.35
2018-10-07T22:57:02.164Z,68.57
2018-10-07T22:59:31.336Z,68.58
2018-10-07T23:02:00.542Z,69.00
2018-10-07T23:04:29.752Z,69.06
2018-10-07T23:06:58.951Z,68.73
2018-10-07T23:09:28.092Z,68.75
2018-10-07T23:11:57.266Z,68.34
2018-10-07T23:14:26.500Z,68.07
2018-10-07T23:16:55.678Z,68.47
2018-10-07T23:19:24.867Z,68.60
2018-10-07T23:21:54.072Z,68.66
2018-10-07T23:24:23.254Z,68.20
2018-10-07T23:26:52.428Z,67.94
2018-10-07T23:29:21.616Z,68.22
2018-10-07T23:31:50.798Z,68.64
2018-10-07T23:34:20.020Z,68.58
2018-10-07T23:36:49.280Z,68.73
2018-10-07T23:39:18.434Z,69.10
2018-10-07T23:41:47.692Z,69.92
2018-10-07T23:44:16.895Z,69.82
2018-10-07T23:46:46.020Z,69.54
2018-10-07T23:49:15.216Z,69.64
2018-10-07T23:51:44.538Z,69.47
2018-10-07T23:54:13.570Z,69.28
2018-10-07T23:56:42.731Z,68.80
2018-10-07T23:59:11.943Z,68.84
